KRDR

Grand Forks Air Force Base

Airport
ICAO code
KRDR
IATA Code
RDR
Summary
ICAO Region
NAM
ICAO Territory
Location

Emerado, North Dakota

Serving
Grand Forks
Elevation
911 ft
Coordinates
47° 57' 44" N , 97° 23' 2" W
KCC
Airport CFIT
Altimeter Temperature Error Correction
Airport WX
Cumulonimbus
Metar
KRDR 142310Z AUTO 33011KT 1 1/8SM R36/5500FT HZ SCT110 19/M06 A2989 RMK AO2 SLP131 $

Grand Forks Air Force Base is a United States Air Force installation located just to the north of Emerado, North Dakota and approximately 16 nm west of the central business district of Grand Forks, North Dakota, USA.

Runways

Designator Length Width Surface Rops
17/35 3764 46 ASP Yes/Yes

Airport map

Aerial View

SKYbrary Partners:

Safety knowledge contributed by: